Time;durP1;ratioP1;P1;durP2;ratioP2;P2;SDS_P1;SDS_P2;PMS_P1;PMS_P2;Temp;Humidity;BMP_temperature;BMP_pressure;BME280_temperature;BME280_humidity;BME280_pressure;Samples;Min_cycle;Max_cycle;Signal;HPM_P1;HPM_P2
2022/07/06 00:00:32;;;;;;;41.35;27.60;;;;;;;-143.10;100.00;51083.13;4789501;29;20046;-66
2022/07/06 00:03:20;;;;;;;42.75;26.13;;;;;;;-143.10;100.00;51067.47;4802742;29;20054;-66
2022/07/06 00:06:03;;;;;;;37.15;25.90;;;;;;;-143.10;100.00;51053.75;4807486;29;20047;-65
2022/07/06 00:08:52;;;;;;;39.45;27.67;;;;;;;-143.10;100.00;51077.25;4799684;29;20147;-66
2022/07/06 00:11:34;;;;;;;36.30;24.23;;;;;;;-143.10;100.00;51079.19;4791225;29;20760;-64
2022/07/06 00:14:22;;;;;;;42.38;27.67;;;;;;;-143.10;100.00;51057.66;4790672;29;20074;-66
2022/07/06 00:17:05;;;;;;;38.08;25.52;;;;;;;-143.10;100.00;51057.66;4788784;29;20136;-67
2022/07/06 00:19:53;;;;;;;41.15;26.95;;;;;;;-143.10;100.00;51092.91;4789643;29;20051;-66
2022/07/06 00:22:36;;;;;;;43.13;27.27;;;;;;;-143.10;100.00;51096.81;4775173;29;20124;-66
2022/07/06 00:25:24;;;;;;;39.13;26.75;;;;;;;-143.10;100.00;51102.69;4788271;29;20627;-66
2022/07/06 00:28:07;;;;;;;38.80;25.50;;;;;;;-143.10;100.00;51057.66;4790666;29;20055;-68
2022/07/06 00:30:56;;;;;;;41.60;26.17;;;;;;;-143.10;100.00;51090.94;4793420;29;20536;-67
2022/07/06 00:33:39;;;;;;;39.55;27.33;;;;;;;-143.10;100.00;51067.47;4790455;29;20047;-66
2022/07/06 00:36:28;;;;;;;45.50;28.23;;;;;;;-143.10;100.00;51090.94;4798575;29;22042;-66
2022/07/06 00:39:10;;;;;;;39.08;26.25;;;;;;;-143.10;100.00;51057.66;4789602;29;20051;-66
2022/07/06 00:42:06;;;;;;;36.97;26.42;;;;;;;-143.10;100.00;51073.34;4777315;29;20055;-66
2022/07/06 00:44:41;;;;;;;42.95;28.77;;;;;;;-143.10;100.00;51094.88;4789131;29;20074;-66
2022/07/06 00:47:29;;;;;;;42.25;29.10;;;;;;;-143.10;100.00;51065.50;4793189;29;20423;-65
2022/07/06 00:50:25;;;;;;;47.42;30.20;;;;;;;-143.10;100.00;51092.91;4789581;29;20063;-66
2022/07/06 00:53:13;;;;;;;;;;;;;;;-143.10;100.00;51053.75;4791050;29;20051;-68
2022/07/06 00:55:56;;;;;;;42.95;29.15;;;;;;;-143.10;100.00;51073.34;4796936;29;20008;-68
2022/07/06 00:58:53;;;;;;;41.63;29.40;;;;;;;-143.10;100.00;51085.06;4798509;29;20138;-67
2022/07/06 01:01:29;;;;;;;47.08;31.92;;;;;;;-143.10;100.00;51040.03;4779386;29;20919;-67
2022/07/06 01:04:17;;;;;;;49.00;32.28;;;;;;;-143.10;100.00;51071.38;4803405;29;20137;-65
2022/07/06 01:07:01;;;;;;;47.95;31.65;;;;;;;-143.10;100.00;51069.41;4807542;29;20051;-65
2022/07/06 01:09:50;;;;;;;52.58;33.00;;;;;;;-143.10;100.00;51081.16;4798412;29;20054;-66
2022/07/06 01:12:32;;;;;;;46.60;31.58;;;;;;;-143.10;100.00;51083.13;4799357;29;20134;-67
2022/07/06 01:15:30;;;;;;;49.13;31.33;;;;;;;-143.10;100.00;51073.34;4798029;29;20161;-66
2022/07/06 01:18:05;;;;;;;48.33;32.67;;;;;;;-143.10;100.00;51096.81;4798087;29;20135;-66
2022/07/06 01:21:12;;;;;;;44.13;31.77;;;;;;;-143.10;100.00;51051.78;4797631;29;20061;-66
2022/07/06 01:24:01;;;;;;;58.17;35.55;;;;;;;-143.10;100.00;51089.00;4782423;29;20047;-66
2022/07/06 01:26:43;;;;;;;54.67;37.75;;;;;;;-143.10;100.00;51045.91;4806928;29;20053;-66
2022/07/06 01:29:32;;;;;;;51.53;33.83;;;;;;;-143.10;100.00;51073.34;4808103;29;20480;-66
2022/07/06 01:32:15;;;;;;;59.72;39.75;;;;;;;-143.10;100.00;51089.00;4813569;29;20543;-66
2022/07/06 01:35:04;;;;;;;61.65;41.05;;;;;;;-143.10;100.00;51081.16;4793668;29;20055;-66
2022/07/06 01:37:53;;;;;;;55.78;37.42;;;;;;;-143.10;100.00;51061.59;4801601;29;20123;-66
2022/07/06 01:40:35;;;;;;;66.50;41.95;;;;;;;-143.10;100.00;51071.38;4785434;29;20062;-65
2022/07/06 01:43:23;;;;;;;70.22;46.10;;;;;;;-143.10;100.00;51069.41;4801587;29;20131;-66
2022/07/06 01:46:12;;;;;;;70.95;46.20;;;;;;;-143.10;100.00;51079.19;4801603;29;20055;-66
2022/07/06 01:49:02;;;;;;;79.35;46.67;;;;;;;-143.10;100.00;51081.16;4801729;29;20531;-66
2022/07/06 01:51:51;;;;;;;65.07;44.63;;;;;;;-143.10;100.00;51083.13;4786191;29;20115;-66
2022/07/06 01:54:40;;;;;;;68.53;46.35;;;;;;;-143.10;100.00;51055.72;4801941;29;20058;-66
2022/07/06 01:57:22;;;;;;;80.55;51.75;;;;;;;-143.10;100.00;51083.13;4785268;29;20047;-66
2022/07/06 02:00:11;;;;;;;72.68;48.55;;;;;;;-143.10;100.00;51085.06;4785726;29;20736;-66
2022/07/06 02:03:00;;;;;;;88.72;52.58;;;;;;;-143.10;100.00;51061.59;4774699;29;20063;-66
2022/07/06 02:05:48;;;;;;;77.30;52.20;;;;;;;-143.10;100.00;51057.66;4799269;29;20058;-66
2022/07/06 02:08:46;;;;;;;82.20;52.50;;;;;;;-143.10;100.00;51047.88;4805853;29;20055;-66
2022/07/06 02:11:41;;;;;;;84.50;52.20;;;;;;;-143.10;100.00;51092.91;4787690;29;20067;-66
2022/07/06 02:14:29;;;;;;;81.50;52.80;;;;;;;-143.10;100.00;51073.34;4797510;29;20070;-67
2022/07/06 02:17:19;;;;;;;85.93;54.15;;;;;;;-143.10;100.00;51071.38;4764199;29;20380;-66
2022/07/06 02:20:00;;;;;;;78.60;52.17;;;;;;;-143.10;100.00;51049.84;4780926;29;20051;-67
2022/07/06 02:22:51;;;;;;;80.93;54.38;;;;;;;-143.10;100.00;51077.25;4765725;30;20055;-68
2022/07/06 02:25:33;;;;;;;83.82;54.60;;;;;;;-143.10;100.00;51081.16;4751901;30;20409;-66
2022/07/06 02:28:22;;;;;;;91.05;53.08;;;;;;;-143.10;100.00;51096.81;4780288;29;20616;-67
2022/07/06 02:31:04;;;;;;;74.10;49.80;;;;;;;-143.10;100.00;51073.34;4781350;29;20054;-67
2022/07/06 02:33:56;;;;;;;85.85;54.90;;;;;;;-143.10;100.00;51065.50;4781518;29;20063;-67
2022/07/06 02:36:38;;;;;;;;;;;;;;;-143.10;100.00;51069.41;4766667;29;20058;-67
2022/07/06 02:39:27;;;;;;;78.45;51.97;;;;;;;-143.10;100.00;51089.00;4781534;29;19929;-67
2022/07/06 02:42:16;;;;;;;86.03;53.60;;;;;;;-143.10;100.00;51057.66;4765386;29;20060;-67
2022/07/06 02:45:06;;;;;;;81.05;52.75;;;;;;;-143.10;100.00;51053.75;4766805;30;20051;-67
2022/07/06 02:47:47;;;;;;;79.50;51.55;;;;;;;-143.10;100.00;51045.91;4798305;29;20498;-68
2022/07/06 02:50:38;;;;;;;76.88;50.60;;;;;;;-143.10;100.00;51057.66;4747804;30;20078;-67
2022/07/06 02:53:20;;;;;;;83.77;54.60;;;;;;;-143.10;100.00;51081.16;4779189;29;20055;-67
2022/07/06 02:56:08;;;;;;;82.20;52.58;;;;;;;-143.10;100.00;51096.81;4781332;29;20051;-67
2022/07/06 02:58:57;;;;;;;84.90;54.83;;;;;;;-143.10;100.00;51067.47;4781488;29;20090;-67
2022/07/06 03:01:40;;;;;;;80.80;53.53;;;;;;;-143.10;100.00;51049.84;4765640;30;20070;-67
2022/07/06 03:04:37;;;;;;;86.05;54.42;;;;;;;-143.10;100.00;51083.13;4777619;29;20084;-68
2022/07/06 03:07:13;;;;;;;85.72;53.47;;;;;;;-143.10;100.00;51083.13;4789115;29;20438;-69
2022/07/06 03:10:10;;;;;;;90.28;56.15;;;;;;;-143.10;100.00;51069.41;4780681;29;20432;-68
2022/07/06 03:12:58;;;;;;;78.60;51.45;;;;;;;-143.10;100.00;51063.53;4773526;29;20649;-67
2022/07/06 03:15:46;;;;;;;85.18;52.42;;;;;;;-143.10;100.00;51059.63;4780129;30;20509;-68
2022/07/06 03:18:36;;;;;;;78.13;50.20;;;;;;;-143.10;100.00;51049.84;4779774;29;20066;-67
2022/07/06 03:21:18;;;;;;;79.70;52.25;;;;;;;-143.10;100.00;51065.50;4781964;29;20612;-68
2022/07/06 03:24:09;;;;;;;85.20;51.33;;;;;;;-143.10;100.00;51089.00;4766137;30;20075;-67
2022/07/06 03:26:50;;;;;;;86.17;50.07;;;;;;;-143.10;100.00;51053.75;4781360;30;20098;-66
2022/07/06 03:29:40;;;;;;;74.30;49.95;;;;;;;-143.10;100.00;51045.91;4782328;30;20051;-67
2022/07/06 03:32:31;;;;;;;71.68;48.78;;;;;;;-143.10;100.00;51073.34;4781109;30;20108;-67
2022/07/06 03:35:15;;;;;;;73.30;48.30;;;;;;;-143.10;100.00;51067.47;4776137;29;20043;-67
2022/07/06 03:38:04;;;;;;;74.72;49.45;;;;;;;-143.10;100.00;51081.16;4780975;29;20123;-67
2022/07/06 03:40:49;;;;;;;73.55;50.72;;;;;;;-143.10;100.00;51081.16;4786792;29;20050;-68
2022/07/06 03:43:39;;;;;;;88.40;52.45;;;;;;;-143.10;100.00;51051.78;4766138;30;20047;-67
2022/07/06 03:46:29;;;;;;;74.65;49.45;;;;;;;-143.10;100.00;51081.16;4780704;30;20063;-69
2022/07/06 03:49:12;;;;;;;77.25;48.40;;;;;;;-143.10;100.00;51073.34;4780124;29;20154;-66
2022/07/06 03:52:05;;;;;;;60.28;40.25;;;;;;;-143.10;100.00;51073.34;4785783;29;20057;-66
2022/07/06 03:54:51;;;;;;;55.40;38.00;;;;;;;-143.10;100.00;51059.63;4764464;29;20062;-66
2022/07/06 03:57:42;;;;;;;51.95;32.45;;;;;;;-143.10;100.00;51061.59;4798843;29;20061;-65
2022/07/06 04:00:27;;;;;;;44.53;29.23;;;;;;;-143.10;100.00;51053.75;4798633;29;20069;-65
2022/07/06 04:03:23;;;;;;;59.47;26.77;;;;;;;-143.10;100.00;51089.00;4786477;29;20058;-67
2022/07/06 04:06:11;;;;;;;31.50;23.38;;;;;;;-143.10;100.00;51077.25;4798792;29;20054;-66
2022/07/06 04:09:00;;;;;;;32.22;22.73;;;;;;;-143.10;100.00;51061.59;4811524;29;20129;-66
2022/07/06 04:11:42;;;;;;;36.55;22.00;;;;;;;-143.10;100.00;51036.13;4814247;29;20062;-67
2022/07/06 04:14:39;;;;;;;38.92;21.45;;;;;;;-143.10;100.00;51043.97;4796053;29;20092;-66
2022/07/06 04:20:24;;;;;;;30.98;19.08;;;;;;;-143.10;99.66;51069.41;4784676;29;20051;-67
2022/07/06 04:23:08;;;;;;;32.38;19.88;;;;;;;-143.10;99.33;51065.50;4769226;29;20059;-66
2022/07/06 04:25:58;;;;;;;33.35;18.52;;;;;;;-143.10;100.00;51065.50;4797768;29;20051;-67
2022/07/06 04:28:43;;;;;;;25.98;17.83;;;;;;;-143.10;99.87;51053.75;4797510;29;20142;-66
2022/07/06 04:31:33;;;;;;;21.48;16.75;;;;;;;-143.10;100.00;51059.63;4797748;29;20065;-66
2022/07/06 04:34:17;;;;;;;26.83;16.08;;;;;;;-143.10;100.00;51069.41;4796926;29;20399;-66
2022/07/06 04:37:12;;;;;;;25.20;16.42;;;;;;;-143.10;100.00;51059.63;4781299;29;20046;-66
2022/07/06 04:39:47;;;;;;;25.15;16.23;;;;;;;-143.10;97.84;51075.28;4770331;30;20158;-67
2022/07/06 04:42:45;;;;;;;22.35;14.90;;;;;;;-143.10;96.82;51053.75;4782071;29;20157;-69
2022/07/06 04:45:21;;;;;;;25.02;16.17;;;;;;;-143.10;95.20;51055.72;4796680;29;20070;-67
2022/07/06 04:48:18;;;;;;;18.52;14.13;;;;;;;-143.10;93.92;51057.66;4785974;29;20057;-68
2022/07/06 04:50:54;;;;;;;20.05;14.70;;;;;;;-143.10;92.16;51038.09;4797561;29;20054;-66
2022/07/06 04:53:49;;;;;;;19.80;14.23;;;;;;;-143.10;91.59;51028.31;4796914;29;20569;-67
2022/07/06 04:56:24;;;;;;;20.58;13.30;;;;;;;-143.10;89.41;51026.34;4802099;29;20050;-66
2022/07/06 04:59:20;;;;;;;22.33;12.63;;;;;;;-143.10;89.31;51042.00;4783257;29;20066;-67
2022/07/06 05:02:10;;;;;;;19.77;12.43;;;;;;;-143.10;89.58;51047.88;4765047;29;20482;-68
2022/07/06 05:04:59;;;;;;;20.75;13.07;;;;;;;-143.10;91.42;51030.25;4798771;29;20169;-67
2022/07/06 05:07:41;;;;;;;22.08;14.80;;;;;;;-143.10;89.30;51043.97;4801803;29;20100;-67
2022/07/06 05:10:37;;;;;;;24.05;14.23;;;;;;;-143.10;91.84;51065.50;4796185;29;20066;-68
2022/07/06 05:13:26;;;;;;;18.08;13.98;;;;;;;-143.10;91.65;51081.16;4783995;29;20078;-70
2022/07/06 05:16:21;;;;;;;28.67;14.93;;;;;;;-143.10;92.34;51079.19;4781405;29;20055;-69
2022/07/06 05:19:16;;;;;;;20.90;13.68;;;;;;;-143.10;93.02;51030.25;4785090;29;20108;-67
2022/07/06 05:21:51;;;;;;;19.90;13.95;;;;;;;-143.10;94.26;51061.59;4781989;29;20047;-68
2022/07/06 05:24:42;;;;;;;21.15;13.65;;;;;;;-143.10;94.17;51100.75;4779760;29;20068;-70
2022/07/06 05:27:24;;;;;;;51.50;15.43;;;;;;;-143.10;94.73;51073.34;4812945;29;20062;-72
2022/07/06 05:30:15;;;;;;;23.98;14.25;;;;;;;-143.10;94.68;51096.81;4790848;29;20428;-71
2022/07/06 05:33:04;;;;;;;18.20;13.88;;;;;;;-143.10;95.45;51096.81;4796172;29;20061;-72
2022/07/06 05:35:54;;;;;;;23.27;14.18;;;;;;;-143.10;95.32;51053.75;4780765;29;20370;-73
2022/07/06 05:38:35;;;;;;;22.38;13.85;;;;;;;-143.10;95.40;51051.78;4792693;29;20050;-69
2022/07/06 05:41:32;;;;;;;19.20;12.75;;;;;;;-143.10;95.41;51073.34;4813920;29;20134;-69
2022/07/06 05:44:07;;;;;;;23.50;14.93;;;;;;;-143.10;97.11;51059.63;4814979;29;20060;-68
2022/07/06 05:50:11;;;;;;;21.77;13.52;;;;;;;-143.10;97.93;51100.75;4816794;29;20502;-68
2022/07/06 05:50:14;;;;;;;22.80;14.13;;;;;;;-143.10;98.33;51085.06;4815471;29;20058;-68
2022/07/06 05:53:11;;;;;;;18.90;13.60;;;;;;;-143.10;98.32;51065.50;4815871;29;20131;-69
2022/07/06 05:55:56;;;;;;;22.52;12.30;;;;;;;-143.10;96.43;51053.75;4801462;29;20424;-69
2022/07/06 05:58:45;;;;;;;19.63;13.15;;;;;;;-143.10;96.40;51094.88;4816457;29;20050;-68
2022/07/06 06:01:28;;;;;;;25.38;12.40;;;;;;;-143.10;96.16;51100.75;4794290;29;20111;-68
2022/07/06 06:04:20;;;;;;;20.40;12.25;;;;;;;-143.10;97.39;51087.03;4790803;29;20046;-68
2022/07/06 06:07:03;;;;;;;20.15;12.10;;;;;;;-143.10;98.81;51077.25;4799173;29;20077;-68
2022/07/06 06:09:51;;;;;;;30.10;6.97;;;;;;;-143.10;94.48;51116.41;4795675;29;20054;-68
2022/07/06 06:12:34;;;;;;;46.53;6.43;;;;;;;-143.10;95.21;51126.19;4782635;29;20053;-66
2022/07/06 06:15:29;;;;;;;42.22;6.63;;;;;;;-143.10;97.71;51108.56;4812949;29;20070;-67
2022/07/06 06:18:24;;;;;;;45.70;6.65;;;;;;;-143.10;99.17;51092.91;4816469;29;20050;-66
2022/07/06 06:21:27;;;;;;;;;;;;;;;-143.10;100.00;51098.78;4818847;29;20058;-67
2022/07/06 06:24:03;;;;;;;29.83;4.60;;;;;;;-143.10;100.00;51098.78;4818736;29;19964;-66
2022/07/06 06:26:53;;;;;;;29.88;4.65;;;;;;;-143.10;100.00;51108.56;4808343;29;20095;-68
2022/07/06 06:29:43;;;;;;;21.65;3.00;;;;;;;-143.10;100.00;51085.06;4781396;29;20054;-67
2022/07/06 06:32:39;;;;;;;23.27;3.53;;;;;;;-143.10;100.00;51108.56;4780076;30;20169;-67
2022/07/06 06:35:14;;;;;;;9.20;2.83;;;;;;;-143.10;100.00;51116.41;4782105;29;20051;-66
2022/07/06 06:38:03;;;;;;;15.32;3.20;;;;;;;-143.10;100.00;51132.06;4798022;29;20090;-66
2022/07/06 06:40:45;;;;;;;17.52;4.68;;;;;;;-143.10;100.00;51116.41;4785491;29;20070;-66
2022/07/06 06:43:40;;;;;;;10.88;4.10;;;;;;;-143.10;100.00;51104.66;4801169;29;20425;-65
2022/07/06 06:46:18;;;;;;;12.75;4.75;;;;;;;-143.10;100.00;51143.81;4785539;29;20061;-66
2022/07/06 06:49:14;;;;;;;10.30;3.88;;;;;;;-143.10;100.00;51130.09;4801664;29;20065;-65
2022/07/06 06:51:49;;;;;;;8.18;4.03;;;;;;;-143.10;100.00;51137.94;4801053;29;20787;-66
2022/07/06 06:54:57;;;;;;;13.13;4.28;;;;;;;-143.10;100.00;51124.22;4800618;29;20561;-66
2022/07/06 06:57:40;;;;;;;5.88;4.05;;;;;;;-143.10;100.00;51132.06;4801032;29;20058;-66
2022/07/06 07:00:36;;;;;;;7.25;4.18;;;;;;;-143.10;100.00;51135.97;4800949;29;20066;-65
2022/07/06 07:03:11;;;;;;;14.30;5.63;;;;;;;-143.10;100.00;51089.00;4804916;29;20050;-67
2022/07/06 07:06:06;;;;;;;12.77;6.57;;;;;;;-143.10;100.00;51145.78;4819316;29;20852;-67
2022/07/06 07:09:02;;;;;;;15.20;6.95;;;;;;;-143.10;100.00;51122.28;4801089;29;20055;-66
2022/07/06 07:11:37;;;;;;;12.63;6.68;;;;;;;-143.10;100.00;51126.19;4801113;29;20099;-66
2022/07/06 07:14:32;;;;;;;10.65;6.25;;;;;;;-143.10;100.00;51135.97;4800061;29;20232;-66
2022/07/06 07:17:21;;;;;;;8.13;5.05;;;;;;;-143.10;100.00;51141.84;4800222;29;20062;-65
2022/07/06 07:20:17;;;;;;;8.85;4.85;;;;;;;-143.10;100.00;51149.69;4800703;29;20059;-66
2022/07/06 07:22:52;;;;;;;9.25;5.00;;;;;;;-143.10;100.00;51108.56;4801215;29;20058;-66
2022/07/06 07:25:41;;;;;;;9.20;5.25;;;;;;;-143.10;100.00;51147.72;4800733;29;20127;-66
2022/07/06 07:28:30;;;;;;;9.82;5.60;;;;;;;-143.10;100.00;51112.50;4800410;29;20051;-67
2022/07/06 07:31:12;;;;;;;9.95;5.22;;;;;;;-143.10;100.00;51135.97;4792527;29;20491;-66
2022/07/06 07:34:01;;;;;;;8.57;4.85;;;;;;;-143.10;100.00;51163.38;4795611;29;20066;-65
2022/07/06 07:36:50;;;;;;;7.50;4.97;;;;;;;-143.10;100.00;51128.16;4795834;29;20074;-67
2022/07/06 07:39:39;;;;;;;6.88;4.10;;;;;;;-143.10;100.00;51143.81;4792872;29;20417;-65
2022/07/06 07:42:20;;;;;;;7.50;3.90;;;;;;;-143.10;100.00;51161.44;4792064;29;20655;-66
2022/07/06 07:45:10;;;;;;;5.50;3.70;;;;;;;-143.10;100.00;51145.78;4796924;29;20356;-67
2022/07/06 07:47:51;;;;;;;6.45;3.65;;;;;;;-143.10;100.00;51132.06;4800530;29;20055;-66
2022/07/06 07:50:41;;;;;;;6.45;4.07;;;;;;;-143.10;100.00;51141.84;4800101;29;20146;-66
2022/07/06 07:53:29;;;;;;;6.90;3.88;;;;;;;-143.10;100.00;51104.66;4799816;29;20050;-66
2022/07/06 07:56:19;;;;;;;4.65;3.78;;;;;;;-143.10;100.00;51128.16;4799959;29;20043;-67
2022/07/06 07:59:08;;;;;;;5.55;4.20;;;;;;;-143.10;100.00;51165.34;4800092;29;20069;-65
2022/07/06 08:01:51;;;;;;;4.97;4.20;;;;;;;-143.10;100.00;51135.97;4784192;29;20059;-66
2022/07/06 08:04:40;;;;;;;6.18;4.32;;;;;;;-143.10;100.00;51137.94;4794127;29;20057;-67
2022/07/06 08:07:23;;;;;;;4.70;3.17;;;;;;;-143.10;100.00;51137.94;4809850;29;20130;-66
2022/07/06 08:10:11;;;;;;;10.60;3.50;;;;;;;-143.10;100.00;51128.16;4801686;29;20719;-66
2022/07/06 08:12:54;;;;;;;5.22;3.30;;;;;;;-143.10;100.00;51149.69;4818497;29;20072;-67
2022/07/06 08:15:43;;;;;;;5.88;3.38;;;;;;;-143.10;100.00;51165.34;4818017;29;20058;-65
2022/07/06 08:18:26;;;;;;;11.07;5.10;;;;;;;-143.10;100.00;51134.03;4816724;29;20050;-67
2022/07/06 08:21:14;;;;;;;6.30;3.13;;;;;;;-143.10;100.00;51139.91;4796407;29;20054;-67
2022/07/06 08:24:06;;;;;;;8.38;3.72;;;;;;;-143.10;100.00;51122.28;4782760;29;20133;-66
2022/07/06 08:26:58;;;;;;;6.78;3.85;;;;;;;-143.10;100.00;51120.31;4798079;29;20823;-68
2022/07/06 08:29:47;;;;;;;6.93;3.38;;;;;;;-143.10;100.00;51124.22;4798541;29;20055;-65
2022/07/06 08:32:28;;;;;;;9.18;3.70;;;;;;;-143.10;100.00;51132.06;4798244;29;20514;-67
2022/07/06 08:35:38;;;;;;;8.07;3.95;;;;;;;-143.10;100.00;51100.75;4775793;29;20059;-66
2022/07/06 08:38:20;;;;;;;9.50;4.65;;;;;;;-143.10;100.00;51120.31;4796427;29;20047;-66
2022/07/06 08:41:11;;;;;;;9.80;4.47;;;;;;;-143.10;100.00;51116.41;4794978;29;20057;-67
2022/07/06 08:43:53;;;;;;;7.32;4.57;;;;;;;-143.10;100.00;51145.78;4796872;29;20063;-66
2022/07/06 08:46:45;;;;;;;12.77;5.35;;;;;;;-143.10;100.00;51124.22;4797117;29;20055;-66
2022/07/06 08:49:27;;;;;;;10.13;6.07;;;;;;;-143.10;100.00;51122.28;4796645;29;20476;-67
2022/07/06 08:52:16;;;;;;;10.88;5.47;;;;;;;-143.10;100.00;51116.41;4799500;29;20114;-67
2022/07/06 08:54:58;;;;;;;20.20;6.05;;;;;;;-143.10;100.00;51153.59;4797274;29;20062;-67
2022/07/06 08:57:48;;;;;;;12.32;6.20;;;;;;;-143.10;100.00;51159.47;4788940;29;20151;-67
2022/07/06 09:00:37;;;;;;;11.10;6.20;;;;;;;-143.10;100.00;51092.91;4786564;29;20627;-67
2022/07/06 09:03:27;;;;;;;8.75;6.18;;;;;;;-143.10;100.00;51108.56;4785576;29;20058;-67
2022/07/06 09:06:11;;;;;;;13.20;6.13;;;;;;;-143.10;100.00;51124.22;4781329;29;20484;-67
2022/07/06 09:09:02;;;;;;;15.20;6.35;;;;;;;-143.10;100.00;51151.66;4800652;29;21418;-68
2022/07/06 09:11:43;;;;;;;16.50;6.35;;;;;;;-143.10;100.00;51102.69;4793156;29;20054;-67
2022/07/06 09:14:33;;;;;;;8.82;5.90;;;;;;;-143.10;100.00;51112.50;4790344;29;20423;-67
2022/07/06 09:17:22;;;;;;;16.20;9.02;;;;;;;-143.10;100.00;51120.31;4794898;29;20157;-67
2022/07/06 09:20:19;;;;;;;15.95;7.65;;;;;;;-143.10;100.00;51135.97;4795961;29;20492;-67
2022/07/06 09:23:06;;;;;;;18.38;9.80;;;;;;;-143.10;100.00;51108.56;4786585;29;20116;-69
2022/07/06 09:26:05;;;;;;;29.08;14.88;;;;;;;-143.10;100.00;51128.16;4786932;29;20054;-67
2022/07/06 09:28:52;;;;;;;29.08;15.43;;;;;;;-143.10;100.00;51108.56;4785621;29;20040;-68
2022/07/06 09:31:41;;;;;;;19.60;8.70;;;;;;;-143.10;100.00;51139.91;4787840;29;20567;-66
2022/07/06 09:34:30;;;;;;;19.02;9.10;;;;;;;-143.10;100.00;51134.03;4774725;29;20078;-68
2022/07/06 09:37:12;;;;;;;19.92;9.80;;;;;;;-143.10;100.00;51128.16;4788481;29;20501;-69
2022/07/06 09:40:07;;;;;;;31.80;14.38;;;;;;;-143.10;100.00;51085.06;4784934;29;20153;-68
2022/07/06 09:43:24;;;;;;;36.90;17.13;;;;;;;-143.10;100.00;51124.22;4785852;29;20062;-68
2022/07/06 09:46:00;;;;;;;37.15;20.40;;;;;;;-143.10;100.00;51143.81;4785229;29;20063;-68
2022/07/06 09:48:49;;;;;;;43.72;22.63;;;;;;;-143.10;100.00;51120.31;4784727;29;20133;-67
2022/07/06 09:51:37;;;;;;;42.95;23.35;;;;;;;-143.10;100.00;51098.78;4789195;29;20129;-65
2022/07/06 09:54:26;;;;;;;61.22;35.30;;;;;;;-143.10;100.00;51126.19;4796604;29;20150;-67
2022/07/06 09:57:09;;;;;;;68.05;39.30;;;;;;;-143.10;100.00;51116.41;4789109;29;20055;-65
2022/07/06 09:59:58;;;;;;;52.60;31.65;;;;;;;-143.10;100.00;51145.78;4804133;29;20489;-66
2022/07/06 10:02:48;;;;;;;47.92;26.20;;;;;;;-143.10;100.00;51120.31;4798589;29;20059;-66
2022/07/06 10:05:38;;;;;;;50.08;25.23;;;;;;;-143.10;100.00;51114.44;4795983;29;20112;-67
2022/07/06 10:08:29;;;;;;;22.70;14.13;;;;;;;-143.10;100.00;51104.66;4793682;29;22341;-67
2022/07/06 10:11:14;;;;;;;19.55;10.95;;;;;;;-143.10;100.00;51087.03;4792456;29;20047;-66
2022/07/06 10:14:03;;;;;;;13.88;9.60;;;;;;;-143.10;100.00;51135.97;4795333;29;20078;-66
2022/07/06 10:16:47;;;;;;;16.85;9.25;;;;;;;-143.10;100.00;51116.41;4784111;30;20070;-67
2022/07/06 10:19:42;;;;;;;19.30;9.68;;;;;;;-143.10;100.00;51143.81;4782891;30;20043;-66
2022/07/06 10:22:19;;;;;;;12.63;7.65;;;;;;;-143.10;100.00;51139.91;4783565;30;20079;-65
2022/07/06 10:25:08;;;;;;;12.52;7.05;;;;;;;-143.10;100.00;51120.31;4788226;29;20527;-65
2022/07/06 10:27:51;;;;;;;10.73;6.85;;;;;;;-143.10;100.00;51141.84;4791138;29;20562;-66
2022/07/06 10:30:41;;;;;;;12.93;6.30;;;;;;;-143.10;100.00;51104.66;4793872;29;20116;-67
2022/07/06 10:33:24;;;;;;;9.27;6.15;;;;;;;-143.10;100.00;51120.31;4792599;29;20051;-67
2022/07/06 10:36:13;;;;;;;9.48;5.10;;;;;;;-143.10;100.00;51092.91;4801807;29;20721;-67
2022/07/06 10:41:02;;;;;;;8.70;5.75;;;;;;;-143.10;100.00;51122.28;4801944;29;20057;-65
2022/07/06 10:42:42;;;;;;;11.00;7.18;;;;;;;-143.10;100.00;51112.50;4800971;29;20145;-65
2022/07/06 10:45:34;;;;;;;16.55;9.57;;;;;;;-143.10;100.00;51114.44;4801681;29;20104;-66
2022/07/06 10:48:30;;;;;;;19.58;12.35;;;;;;;-143.10;100.00;51137.94;4801237;29;20050;-66
2022/07/06 10:51:06;;;;;;;27.48;13.10;;;;;;;-143.10;100.00;51141.84;4800681;29;20054;-67
2022/07/06 10:54:01;;;;;;;24.20;12.55;;;;;;;-143.10;100.00;51128.16;4801878;29;20062;-66
2022/07/06 10:56:58;;;;;;;25.92;16.80;;;;;;;-143.10;100.00;51104.66;4788527;29;20127;-65
2022/07/06 11:00:06;;;;;;;24.38;15.98;;;;;;;-143.10;100.00;51134.03;4801443;29;20138;-68
2022/07/06 11:02:48;;;;;;;24.33;15.80;;;;;;;-143.10;100.00;51120.31;4801131;29;20058;-68
2022/07/06 11:05:43;;;;;;;18.52;12.27;;;;;;;-143.10;100.00;51124.22;4819484;29;20067;-65
2022/07/06 11:08:59;;;;;;;16.95;10.52;;;;;;;-143.10;100.00;51108.56;4783325;29;20388;-66
2022/07/06 11:11:49;;;;;;;18.38;11.55;;;;;;;-143.10;100.00;51106.63;4783026;30;20051;-66
2022/07/06 11:14:42;;;;;;;25.23;14.60;;;;;;;-143.10;100.00;51104.66;4806291;29;20073;-66
2022/07/06 11:17:23;;;;;;;27.20;14.35;;;;;;;-143.10;100.00;51112.50;4819510;29;20051;-66
2022/07/06 11:20:20;;;;;;;21.15;13.30;;;;;;;-143.10;100.00;51139.91;4817958;29;20479;-68
2022/07/06 11:23:13;;;;;;;22.38;13.45;;;;;;;-143.10;100.00;51094.88;4802866;29;20050;-66
2022/07/06 11:26:03;;;;;;;26.70;16.25;;;;;;;-143.10;100.00;51135.97;4778839;29;20688;-66
2022/07/06 11:28:47;;;;;;;29.90;16.10;;;;;;;-143.10;100.00;51130.09;4791664;29;20062;-66
2022/07/06 11:31:36;;;;;;;27.63;14.60;;;;;;;-143.10;100.00;51116.41;4783382;29;20384;-66
2022/07/06 11:34:28;;;;;;;23.65;14.10;;;;;;;-143.10;100.00;51141.84;4782025;30;20181;-65
2022/07/06 11:37:23;;;;;;;28.10;14.68;;;;;;;-143.10;100.00;51114.44;4782493;30;20047;-65
2022/07/06 11:40:12;;;;;;;26.55;15.02;;;;;;;-143.10;100.00;51151.66;4782195;30;20079;-65
2022/07/06 11:43:00;;;;;;;37.65;18.73;;;;;;;-143.10;100.00;51126.19;4789787;29;20747;-67
2022/07/06 11:45:49;;;;;;;27.50;17.17;;;;;;;-143.10;100.00;51120.31;4800696;29;20108;-66
2022/07/06 11:48:39;;;;;;;30.45;17.30;;;;;;;-143.10;100.00;51112.50;4800519;29;20139;-65
2022/07/06 11:51:33;;;;;;;27.88;16.95;;;;;;;-143.10;100.00;51085.06;4799694;29;20063;-66
2022/07/06 11:54:18;;;;;;;32.97;18.50;;;;;;;-143.10;100.00;51116.41;4800135;29;20059;-65
2022/07/06 11:57:11;;;;;;;31.88;18.83;;;;;;;-143.10;100.00;51112.50;4799751;29;20054;-66
2022/07/06 12:00:00;;;;;;;30.35;17.45;;;;;;;-143.10;100.00;51126.19;4799975;29;20039;-66
2022/07/06 12:03:00;;;;;;;22.55;15.25;;;;;;;-143.10;100.00;51110.53;4799637;29;20046;-66
2022/07/06 12:05:51;;;;;;;22.83;14.07;;;;;;;-143.10;100.00;51124.22;4818370;29;20123;-66
2022/07/06 12:08:49;;;;;;;27.58;17.60;;;;;;;-143.10;100.00;51112.50;4782164;29;20055;-66
2022/07/06 12:11:40;;;;;;;28.52;18.08;;;;;;;-143.10;100.00;51104.66;4797924;29;20063;-66
2022/07/06 12:14:31;;;;;;;28.45;18.23;;;;;;;-143.10;100.00;51116.41;4798461;29;20063;-65
2022/07/06 12:17:16;;;;;;;27.25;16.35;;;;;;;-143.10;100.00;51118.34;4781750;30;20472;-65
2022/07/06 12:20:12;;;;;;;31.23;17.65;;;;;;;-143.10;100.00;51120.31;4799221;29;20619;-66
2022/07/06 12:23:07;;;;;;;27.90;16.63;;;;;;;-143.10;100.00;51139.91;4799935;29;20070;-66
2022/07/06 12:26:00;;;;;;;27.98;17.73;;;;;;;-143.10;100.00;51128.16;4797836;29;20123;-67
2022/07/06 12:28:43;;;;;;;29.20;18.55;;;;;;;-143.10;100.00;51112.50;4799818;29;20743;-66
2022/07/06 12:31:45;;;;;;;32.05;18.88;;;;;;;-143.10;100.00;51116.41;4799401;29;20055;-67
2022/07/06 12:34:36;;;;;;;26.27;19.20;;;;;;;-143.10;100.00;51106.63;4453763;29;10000330;-65
2022/07/06 12:37:20;;;;;;;28.00;17.25;;;;;;;-143.10;100.00;51122.28;4467260;29;10000627;-68